Time;durP1;ratioP1;P1;durP2;ratioP2;P2;SDS_P1;SDS_P2;PMS_P1;PMS_P2;Temp;Humidity;BMP_temperature;BMP_pressure;BME280_temperature;BME280_humidity;BME280_pressure;Samples;Min_cycle;Max_cycle;Signal;HPM_P1;HPM_P2
2023/03/13 00:01:11;;;;;;;5.82;5.28;;;10.60;99.90;;;;;;5052709;28;20098;-72
2023/03/13 00:03:37;;;;;;;5.45;4.75;;;10.60;99.90;;;;;;5046045;28;20029;-72
2023/03/13 00:06:03;;;;;;;7.28;5.07;;;10.50;99.90;;;;;;5048342;28;20107;-73
2023/03/13 00:08:29;;;;;;;5.75;5.15;;;10.60;99.90;;;;;;5042903;28;20030;-72
2023/03/13 00:10:54;;;;;;;6.00;5.40;;;10.50;99.90;;;;;;5046778;28;20045;-72
2023/03/13 00:13:20;;;;;;;6.55;5.57;;;10.50;99.90;;;;;;5042548;28;20033;-72
2023/03/13 00:15:47;;;;;;;8.50;6.22;;;10.50;99.90;;;;;;5046903;28;20368;-72
2023/03/13 00:18:12;;;;;;;8.02;5.28;;;10.50;99.90;;;;;;5042849;28;20389;-72
2023/03/13 00:20:38;;;;;;;6.30;5.32;;;10.60;99.90;;;;;;5046726;28;20028;-72
2023/03/13 00:23:04;;;;;;;8.25;5.57;;;10.60;99.90;;;;;;5053770;28;20017;-72
2023/03/13 00:25:29;;;;;;;10.20;5.35;;;10.60;99.90;;;;;;5055257;28;20103;-72
2023/03/13 00:27:55;;;;;;;11.63;5.82;;;10.50;99.90;;;;;;5053125;28;20021;-72
2023/03/13 00:30:21;;;;;;;7.38;5.45;;;10.50;99.90;;;;;;5058115;28;20083;-72
2023/03/13 00:32:47;;;;;;;5.47;4.55;;;10.40;99.90;;;;;;5056305;28;20028;-72
2023/03/13 00:35:14;;;;;;;6.72;4.82;;;10.40;99.90;;;;;;5058812;28;20108;-71
2023/03/13 00:37:39;;;;;;;5.70;5.10;;;10.30;99.90;;;;;;5055128;28;20020;-71
2023/03/13 00:40:07;;;;;;;6.88;5.53;;;10.30;99.90;;;;;;5058244;28;20392;-72
2023/03/13 00:42:32;;;;;;;8.63;5.55;;;10.30;99.90;;;;;;5056142;28;20055;-72
2023/03/13 00:44:58;;;;;;;7.93;5.22;;;10.30;99.90;;;;;;5048954;28;20103;-72
2023/03/13 00:47:24;;;;;;;7.20;5.25;;;10.20;99.90;;;;;;5053556;28;20493;-72
2023/03/13 00:49:49;;;;;;;6.50;5.13;;;10.10;99.90;;;;;;5058455;28;20085;-72
2023/03/13 00:52:15;;;;;;;6.20;4.60;;;10.10;99.90;;;;;;5042073;28;20048;-72
2023/03/13 00:54:41;;;;;;;7.30;5.03;;;10.00;99.90;;;;;;5057432;28;20481;-72
2023/03/13 00:57:08;;;;;;;7.50;5.20;;;10.00;99.90;;;;;;5056280;28;20062;-72
2023/03/13 00:59:33;;;;;;;7.07;4.97;;;10.00;99.90;;;;;;5058094;28;20032;-72
2023/03/13 01:01:59;;;;;;;10.48;5.50;;;9.90;99.90;;;;;;5056198;28;20021;-72
2023/03/13 01:04:25;;;;;;;6.88;5.80;;;9.90;99.90;;;;;;5057913;28;20101;-72
2023/03/13 01:06:50;;;;;;;9.43;5.97;;;9.80;99.90;;;;;;5055232;28;20029;-72
2023/03/13 01:09:16;;;;;;;9.75;6.45;;;9.80;99.90;;;;;;5057993;28;20025;-72
2023/03/13 01:11:43;;;;;;;5.97;5.38;;;9.70;99.90;;;;;;5054841;28;20036;-72
2023/03/13 01:14:13;;;;;;;8.07;5.55;;;9.70;99.90;;;;;;5057391;28;20025;-72
2023/03/13 01:16:39;;;;;;;7.43;6.05;;;9.60;99.90;;;;;;5055154;28;20366;-72
2023/03/13 01:19:09;;;;;;;7.82;5.68;;;9.60;99.90;;;;;;5057036;28;20029;-72
2023/03/13 01:21:34;;;;;;;7.78;5.53;;;9.60;99.90;;;;;;5055737;28;20024;-72
2023/03/13 01:24:00;;;;;;;7.70;5.95;;;9.50;99.90;;;;;;5056527;28;20051;-72
2023/03/13 01:26:27;;;;;;;10.43;6.15;;;9.50;99.90;;;;;;5056190;28;20017;-72
2023/03/13 01:28:53;;;;;;;9.52;6.28;;;9.40;99.90;;;;;;5056756;28;20538;-72
2023/03/13 01:31:23;;;;;;;7.60;6.80;;;9.40;99.90;;;;;;5056068;28;20574;-72
2023/03/13 01:33:53;;;;;;;10.70;6.50;;;9.40;99.90;;;;;;5055651;28;20029;-72
2023/03/13 01:36:18;;;;;;;7.72;6.72;;;9.40;99.90;;;;;;5055778;28;20013;-73
2023/03/13 01:38:48;;;;;;;10.05;6.90;;;9.40;99.90;;;;;;5055587;28;20025;-72
2023/03/13 01:41:13;;;;;;;8.65;7.15;;;9.40;99.90;;;;;;5032100;28;20031;-72
2023/03/13 01:43:39;;;;;;;8.57;7.18;;;9.40;99.90;;;;;;5056665;28;20104;-72
2023/03/13 01:46:16;;;;;;;10.35;7.22;;;9.40;99.90;;;;;;5047019;28;20492;-72
2023/03/13 01:48:54;;;;;;;8.02;7.22;;;9.40;99.90;;;;;;5056934;28;20025;-72
2023/03/13 01:51:51;;;;;;;8.10;7.05;;;9.40;99.90;;;;;;5058045;28;20041;-72
2023/03/13 01:54:29;;;;;;;9.70;8.35;;;9.40;99.90;;;;;;5058593;28;20109;-72
2023/03/13 01:57:14;;;;;;;8.70;7.80;;;9.40;99.90;;;;;;5056139;28;20096;-72
2023/03/13 01:59:45;;;;;;;9.02;8.13;;;9.40;99.90;;;;;;5056989;28;20071;-72
2023/03/13 02:02:13;;;;;;;8.88;7.90;;;9.40;99.90;;;;;;5055541;28;20592;-72
2023/03/13 02:04:47;;;;;;;9.43;8.00;;;9.40;99.90;;;;;;5056209;28;20025;-72
2023/03/13 02:07:20;;;;;;;11.82;8.40;;;9.40;99.90;;;;;;5032922;28;20029;-72
2023/03/13 02:09:50;;;;;;;11.48;8.23;;;9.40;99.90;;;;;;5052997;28;20466;-72
2023/03/13 02:12:43;;;;;;;13.25;8.52;;;9.30;99.90;;;;;;5057586;28;20032;-72
2023/03/13 02:15:16;;;;;;;9.57;8.40;;;9.40;99.90;;;;;;5053355;28;20046;-72
2023/03/13 02:17:42;;;;;;;9.20;8.00;;;9.40;99.90;;;;;;5050400;28;20024;-72
2023/03/13 02:20:09;;;;;;;9.50;8.50;;;9.30;99.90;;;;;;5052511;28;20020;-72
2023/03/13 02:22:41;;;;;;;10.68;8.00;;;9.30;99.90;;;;;;5055354;28;20047;-72
2023/03/13 02:25:22;;;;;;;10.85;8.60;;;9.30;99.90;;;;;;5055864;28;20493;-72
2023/03/13 02:27:51;;;;;;;11.60;9.43;;;9.30;99.90;;;;;;5054672;28;20051;-72
2023/03/13 02:30:17;;;;;;;9.90;8.90;;;9.40;99.90;;;;;;5053621;28;20132;-72
2023/03/13 02:32:44;;;;;;;8.73;7.82;;;9.40;99.90;;;;;;5048978;28;20038;-72
2023/03/13 02:35:13;;;;;;;9.15;8.20;;;9.40;99.90;;;;;;5054073;28;20070;-72
2023/03/13 02:37:43;;;;;;;11.13;8.80;;;9.40;99.90;;;;;;5049223;28;20142;-72
2023/03/13 02:40:11;;;;;;;13.27;8.80;;;9.40;99.90;;;;;;5052571;28;20024;-72
2023/03/13 02:42:40;;;;;;;10.68;9.00;;;9.40;99.90;;;;;;5039913;28;20108;-72
2023/03/13 02:45:07;;;;;;;11.77;8.60;;;9.40;99.90;;;;;;5045960;28;20461;-72
2023/03/13 02:47:33;;;;;;;10.02;9.02;;;9.40;99.90;;;;;;5039100;28;20083;-72
2023/03/13 02:49:58;;;;;;;9.32;8.32;;;9.40;99.90;;;;;;5039279;28;20025;-72
2023/03/13 02:52:28;;;;;;;13.30;9.52;;;9.40;99.90;;;;;;5038359;28;20053;-72
2023/03/13 02:55:01;;;;;;;9.63;8.45;;;9.40;99.90;;;;;;5039408;28;20400;-72
2023/03/13 02:57:28;;;;;;;11.30;9.57;;;9.40;99.90;;;;;;5040012;28;20026;-72
2023/03/13 02:59:54;;;;;;;11.48;10.27;;;9.50;99.90;;;;;;5041078;28;20021;-72
2023/03/13 03:02:19;;;;;;;11.30;10.00;;;9.50;99.90;;;;;;5039890;28;20060;-72
2023/03/13 03:04:45;;;;;;;14.80;10.75;;;9.60;99.90;;;;;;5040593;28;20024;-72
2023/03/13 03:07:11;;;;;;;11.98;10.77;;;9.60;99.90;;;;;;5039176;28;20034;-72
2023/03/13 03:09:36;;;;;;;11.90;10.43;;;9.60;99.90;;;;;;5041071;28;20021;-72
2023/03/13 03:12:02;;;;;;;11.85;10.18;;;9.60;99.90;;;;;;5039571;28;20029;-72
2023/03/13 03:14:28;;;;;;;16.45;12.35;;;9.70;99.90;;;;;;5039829;28;20021;-72
2023/03/13 03:16:54;;;;;;;13.73;11.20;;;9.70;99.90;;;;;;5039422;28;20556;-72
2023/03/13 03:19:19;;;;;;;13.88;11.88;;;9.70;99.90;;;;;;5040069;28;20039;-72
2023/03/13 03:21:45;;;;;;;14.00;11.20;;;9.80;99.90;;;;;;5037509;28;20026;-72
2023/03/13 03:24:11;;;;;;;12.98;11.18;;;9.80;99.90;;;;;;5038749;28;20032;-72
2023/03/13 03:26:37;;;;;;;12.75;11.45;;;9.90;99.90;;;;;;5039222;28;20021;-72
2023/03/13 03:29:02;;;;;;;15.13;11.63;;;9.90;99.90;;;;;;5039723;28;20500;-72
2023/03/13 03:31:29;;;;;;;14.20;11.52;;;10.00;99.90;;;;;;5038955;28;20048;-71
2023/03/13 03:33:56;;;;;;;13.93;10.80;;;10.00;99.90;;;;;;5040385;28;20431;-71
2023/03/13 03:36:23;;;;;;;16.85;12.05;;;10.00;99.90;;;;;;5038602;28;20033;-72
2023/03/13 03:38:49;;;;;;;13.23;11.57;;;10.00;99.90;;;;;;5038858;28;20112;-72
2023/03/13 03:41:15;;;;;;;13.23;11.25;;;9.90;99.90;;;;;;5041875;28;20106;-72
2023/03/13 03:43:41;;;;;;;13.07;11.38;;;9.90;99.90;;;;;;5048340;28;20035;-72
2023/03/13 03:46:07;;;;;;;11.88;10.52;;;9.90;99.90;;;;;;5043503;28;20104;-72
2023/03/13 03:48:32;;;;;;;11.85;10.70;;;9.80;99.90;;;;;;5041260;28;20021;-72
2023/03/13 03:50:58;;;;;;;14.18;10.73;;;9.80;99.90;;;;;;5044853;28;20115;-72
2023/03/13 03:53:24;;;;;;;13.00;10.70;;;9.80;99.90;;;;;;5048242;28;20028;-72
2023/03/13 03:55:50;;;;;;;14.68;9.90;;;9.80;99.90;;;;;;5046392;28;20029;-71
2023/03/13 03:58:16;;;;;;;10.40;9.27;;;9.80;99.90;;;;;;5047948;28;20020;-72
2023/03/13 04:00:46;;;;;;;12.77;8.90;;;9.80;99.90;;;;;;5038683;28;20034;-72
2023/03/13 04:03:12;;;;;;;16.17;8.73;;;9.80;99.90;;;;;;5043370;28;20021;-72
2023/03/13 04:05:38;;;;;;;10.68;8.00;;;9.90;99.90;;;;;;5037877;28;20512;-72
2023/03/13 04:08:05;;;;;;;15.52;9.75;;;9.90;99.90;;;;;;5042706;28;20034;-71
2023/03/13 04:10:30;;;;;;;12.45;9.10;;;9.90;99.90;;;;;;5038425;28;20062;-72
2023/03/13 04:12:56;;;;;;;10.07;8.05;;;10.10;99.90;;;;;;5041336;28;20134;-72
2023/03/13 04:15:22;;;;;;;11.38;8.55;;;10.10;99.90;;;;;;5044060;28;20021;-72
2023/03/13 04:17:47;;;;;;;11.15;8.35;;;10.10;99.90;;;;;;5050139;28;20052;-72
2023/03/13 04:20:13;;;;;;;10.38;8.65;;;10.10;99.90;;;;;;5051319;28;20029;-72
2023/03/13 04:22:41;;;;;;;9.20;7.88;;;10.10;99.90;;;;;;5048118;28;20025;-72
2023/03/13 04:25:06;;;;;;;11.07;7.78;;;10.00;99.90;;;;;;5051527;28;20032;-72
2023/03/13 04:27:33;;;;;;;11.48;8.13;;;10.00;99.90;;;;;;5047636;28;20030;-72
2023/03/13 04:29:59;;;;;;;8.98;7.38;;;10.00;99.90;;;;;;5050616;28;20032;-72
2023/03/13 04:32:25;;;;;;;9.82;7.70;;;9.90;99.90;;;;;;5048895;28;20025;-72
2023/03/13 04:34:51;;;;;;;8.75;7.60;;;9.90;99.90;;;;;;5052354;28;20103;-72
2023/03/13 04:37:16;;;;;;;8.93;7.93;;;9.90;99.90;;;;;;5049512;28;20095;-72
2023/03/13 04:39:42;;;;;;;11.75;7.85;;;9.80;99.90;;;;;;5052963;28;20024;-72
2023/03/13 04:42:10;;;;;;;8.50;7.07;;;9.80;99.90;;;;;;5051525;28;20389;-72
2023/03/13 04:44:36;;;;;;;10.55;6.63;;;9.80;99.90;;;;;;5025648;28;20029;-72
2023/03/13 04:47:02;;;;;;;12.30;6.60;;;9.80;99.90;;;;;;5044634;28;20029;-72
2023/03/13 04:49:28;;;;;;;8.00;6.68;;;9.80;99.90;;;;;;5053787;28;20036;-72
2023/03/13 04:51:53;;;;;;;10.40;6.75;;;9.80;99.90;;;;;;5048949;28;20049;-72
2023/03/13 04:54:19;;;;;;;6.93;6.18;;;9.80;99.90;;;;;;5049936;28;20021;-72
2023/03/13 04:56:45;;;;;;;6.05;5.47;;;9.90;99.90;;;;;;5049388;28;20108;-72
2023/03/13 04:59:11;;;;;;;6.25;5.65;;;10.00;99.90;;;;;;5049845;28;20025;-72
2023/03/13 05:01:38;;;;;;;14.48;6.05;;;10.00;99.90;;;;;;5049668;28;20021;-72
2023/03/13 05:04:04;;;;;;;7.28;6.18;;;10.20;99.90;;;;;;5051701;28;20504;-72
2023/03/13 05:06:29;;;;;;;11.20;6.28;;;10.20;99.90;;;;;;5050088;28;20051;-72
2023/03/13 05:08:55;;;;;;;6.22;5.63;;;10.20;99.90;;;;;;5050135;28;20492;-72
2023/03/13 05:11:21;;;;;;;8.30;5.55;;;10.20;99.90;;;;;;5049889;28;20080;-72
2023/03/13 05:13:47;;;;;;;6.47;4.75;;;10.20;99.90;;;;;;5051531;28;20025;-72
2023/03/13 05:16:12;;;;;;;5.82;5.22;;;10.20;99.90;;;;;;5050097;28;20028;-72
2023/03/13 05:18:38;;;;;;;7.88;5.47;;;10.20;99.90;;;;;;5055309;28;20028;-72
2023/03/13 05:21:04;;;;;;;5.20;4.47;;;10.30;99.90;;;;;;5053163;28;20501;-72
2023/03/13 05:23:30;;;;;;;10.43;4.47;;;10.30;99.90;;;;;;5054718;28;20108;-72
2023/03/13 05:25:56;;;;;;;8.48;4.82;;;10.20;99.90;;;;;;5053254;28;20052;-72
2023/03/13 05:28:22;;;;;;;8.38;3.90;;;10.20;99.90;;;;;;5054634;28;20096;-71
2023/03/13 05:30:47;;;;;;;348.73;256.10;;;10.30;99.90;;;;;;5052804;28;20060;-72
2023/03/13 05:33:13;;;;;;;33.97;22.73;;;10.30;99.90;;;;;;5050536;28;20087;-72
2023/03/13 05:35:39;;;;;;;77.15;53.38;;;10.40;99.90;;;;;;5054842;28;20025;-72
2023/03/13 05:38:04;;;;;;;255.10;162.90;;;10.50;99.90;;;;;;5056636;28;20093;-72
2023/03/13 05:40:30;;;;;;;26.98;17.65;;;10.50;99.90;;;;;;5046674;28;20453;-72
2023/03/13 05:42:55;;;;;;;93.40;67.45;;;10.60;99.90;;;;;;5042748;28;20060;-72
2023/03/13 05:45:21;;;;;;;136.75;95.47;;;10.70;99.90;;;;;;5046533;28;20025;-72
2023/03/13 05:47:47;;;;;;;90.50;65.85;;;10.70;99.90;;;;;;5051989;28;20051;-72
2023/03/13 05:50:13;;;;;;;94.55;63.35;;;10.70;99.90;;;;;;5058242;28;20025;-72
2023/03/13 05:52:38;;;;;;;72.97;51.13;;;10.80;99.90;;;;;;5058392;28;20049;-71
2023/03/13 05:55:04;;;;;;;193.65;132.43;;;10.80;99.90;;;;;;5058277;28;20067;-72
2023/03/13 05:57:30;;;;;;;94.47;65.38;;;10.80;99.90;;;;;;5058503;28;20025;-73
2023/03/13 05:59:55;;;;;;;92.85;67.03;;;10.90;99.90;;;;;;5058604;28;20028;-72
2023/03/13 06:02:21;;;;;;;103.35;80.30;;;10.90;99.90;;;;;;5058912;28;20108;-72
2023/03/13 06:04:47;;;;;;;57.00;46.55;;;10.90;99.90;;;;;;5056031;28;20025;-72
2023/03/13 06:07:12;;;;;;;20.23;12.27;;;10.90;99.90;;;;;;5044231;28;20040;-72
2023/03/13 06:09:39;;;;;;;9.80;7.20;;;10.90;99.90;;;;;;5048503;28;20028;-72
2023/03/13 06:12:06;;;;;;;158.55;75.32;;;11.00;99.90;;;;;;5045207;28;20035;-72
2023/03/13 06:14:32;;;;;;;84.90;43.92;;;11.00;99.90;;;;;;5048101;28;20013;-72
2023/03/13 06:16:58;;;;;;;94.57;52.08;;;11.10;99.90;;;;;;5045582;28;20063;-72
2023/03/13 06:19:23;;;;;;;282.75;136.45;;;11.20;99.90;;;;;;5048360;28;20051;-72
2023/03/13 06:21:50;;;;;;;25.02;13.88;;;11.10;99.90;;;;;;5044146;28;20025;-72
2023/03/13 06:24:15;;;;;;;202.90;91.50;;;11.20;99.90;;;;;;5045787;28;20021;-72
2023/03/13 06:26:41;;;;;;;401.20;173.63;;;11.20;99.90;;;;;;5043919;28;20037;-72
2023/03/13 06:29:07;;;;;;;111.90;46.15;;;11.20;99.90;;;;;;5048361;28;20021;-72
2023/03/13 06:31:33;;;;;;;371.90;144.90;;;11.20;99.90;;;;;;5045055;28;20390;-72
2023/03/13 06:33:58;;;;;;;378.17;142.43;;;11.10;99.90;;;;;;5047556;28;20025;-73
2023/03/13 06:36:24;;;;;;;181.02;68.40;;;11.10;99.90;;;;;;5042849;28;20053;-73
2023/03/13 06:38:50;;;;;;;650.70;305.38;;;11.00;99.90;;;;;;5047540;28;20097;-73
2023/03/13 06:41:16;;;;;;;355.77;151.70;;;11.00;99.90;;;;;;5045089;28;20045;-73
2023/03/13 06:43:42;;;;;;;56.30;22.73;;;10.90;99.90;;;;;;5048828;28;20024;-73
2023/03/13 06:46:11;;;;;;;545.42;270.60;;;10.90;99.90;;;;;;5044192;28;20033;-73
2023/03/13 06:48:37;;;;;;;554.00;286.30;;;10.80;99.90;;;;;;5047702;28;20109;-73
2023/03/13 06:51:03;;;;;;;294.73;124.50;;;10.80;99.90;;;;;;5045747;28;20084;-72
2023/03/13 06:53:29;;;;;;;156.60;71.30;;;10.70;99.90;;;;;;5046165;28;20505;-73
2023/03/13 06:55:54;;;;;;;250.13;107.82;;;10.70;99.90;;;;;;5045753;28;20047;-72
2023/03/13 06:58:20;;;;;;;390.42;173.68;;;10.70;99.90;;;;;;5032501;28;20033;-72
2023/03/13 07:00:46;;;;;;;99.57;45.70;;;10.70;99.90;;;;;;5039596;28;20025;-73
2023/03/13 07:03:13;;;;;;;430.80;281.23;;;10.80;99.90;;;;;;5035933;28;20448;-73
2023/03/13 07:05:38;;;;;;;87.88;35.33;;;10.90;99.90;;;;;;5039169;28;20013;-72
2023/03/13 07:08:04;;;;;;;366.73;117.68;;;11.00;99.90;;;;;;5038253;28;20056;-73
2023/03/13 07:10:30;;;;;;;394.05;149.68;;;11.00;99.90;;;;;;5036590;28;20026;-72
2023/03/13 07:12:56;;;;;;;124.15;52.53;;;11.10;99.90;;;;;;5039311;28;20032;-72
2023/03/13 07:15:22;;;;;;;509.13;241.00;;;11.20;99.90;;;;;;5036222;28;20397;-72
2023/03/13 07:17:48;;;;;;;496.02;239.48;;;11.30;99.90;;;;;;5035880;28;20417;-72
2023/03/13 07:20:13;;;;;;;160.30;60.88;;;11.40;99.90;;;;;;5037927;28;20077;-72
2023/03/13 07:22:39;;;;;;;201.60;83.60;;;11.60;99.90;;;;;;5038028;28;20099;-72
2023/03/13 07:25:05;;;;;;;48.83;22.33;;;11.70;99.90;;;;;;5034262;28;20040;-72
2023/03/13 07:27:31;;;;;;;56.50;25.38;;;11.80;99.90;;;;;;5038570;28;20032;-72
2023/03/13 07:29:57;;;;;;;79.47;37.95;;;11.90;99.90;;;;;;5037395;28;20396;-72
2023/03/13 07:32:22;;;;;;;148.25;55.85;;;11.90;99.90;;;;;;5037676;28;20021;-72
2023/03/13 07:34:48;;;;;;;133.27;58.85;;;11.90;99.90;;;;;;5035308;28;20034;-72
2023/03/13 07:37:14;;;;;;;21.42;11.40;;;11.90;99.90;;;;;;5037776;28;20494;-72
2023/03/13 07:39:41;;;;;;;37.72;23.85;;;11.90;99.90;;;;;;5037643;28;20442;-72
2023/03/13 07:42:10;;;;;;;32.97;19.17;;;12.00;99.90;;;;;;5034035;28;20028;-72
2023/03/13 07:44:35;;;;;;;79.13;49.70;;;12.00;99.90;;;;;;5035127;28;20025;-72
2023/03/13 07:47:01;;;;;;;27.05;17.15;;;12.10;99.90;;;;;;5034387;28;20553;-72
2023/03/13 07:49:27;;;;;;;20.65;12.13;;;12.20;99.90;;;;;;5036079;28;20030;-72
2023/03/13 07:51:52;;;;;;;6.75;4.20;;;12.30;99.90;;;;;;5034500;28;20045;-72
2023/03/13 07:54:18;;;;;;;10.23;6.40;;;12.40;99.90;;;;;;5040284;28;20096;-72
2023/03/13 07:56:44;;;;;;;291.67;122.35;;;12.40;99.90;;;;;;5032424;28;20022;-72
2023/03/13 07:59:09;;;;;;;32.50;14.15;;;12.40;99.90;;;;;;5037715;28;20789;-71
2023/03/13 08:01:35;;;;;;;8.93;4.10;;;12.50;99.90;;;;;;5034259;28;20029;-71
2023/03/13 08:04:02;;;;;;;10.80;6.00;;;12.70;99.90;;;;;;5034362;28;20035;-71
2023/03/13 08:06:34;;;;;;;54.20;27.23;;;12.80;99.90;;;;;;5032615;28;20045;-72
2023/03/13 08:09:00;;;;;;;154.18;67.70;;;13.00;99.90;;;;;;5035073;28;20029;-71
2023/03/13 08:11:27;;;;;;;49.65;24.45;;;13.10;99.90;;;;;;5035367;28;20036;-71
2023/03/13 08:13:54;;;;;;;88.10;45.05;;;13.20;99.90;;;;;;5037818;28;20507;-71
2023/03/13 08:16:26;;;;;;;27.33;13.82;;;13.40;99.90;;;;;;5031406;28;20052;-71
2023/03/13 08:18:54;;;;;;;17.95;10.43;;;13.50;99.90;;;;;;5035575;28;20081;-71
2023/03/13 08:21:22;;;;;;;6.90;3.85;;;13.70;99.90;;;;;;5032903;28;20025;-72
2023/03/13 08:23:51;;;;;;;6.50;3.03;;;13.80;99.90;;;;;;5035804;28;20033;-71
2023/03/13 08:26:20;;;;;;;4.35;2.88;;;13.90;99.90;;;;;;5028936;28;20033;-72
2023/03/13 08:28:47;;;;;;;6.18;2.97;;;14.00;99.90;;;;;;5033025;28;20021;-72
2023/03/13 08:31:14;;;;;;;8.48;2.50;;;14.20;99.90;;;;;;5037206;28;20033;-72
2023/03/13 08:33:42;;;;;;;3.92;3.00;;;14.40;99.90;;;;;;5036045;28;20104;-71
2023/03/13 08:36:12;;;;;;;4.63;2.60;;;14.60;99.90;;;;;;5034492;28;20033;-71
2023/03/13 08:38:40;;;;;;;7.57;2.63;;;14.70;99.90;;;;;;5036350;28;20013;-72
2023/03/13 08:41:07;;;;;;;6.53;2.50;;;14.80;99.90;;;;;;5031439;28;20073;-71
2023/03/13 08:43:32;;;;;;;8.07;2.53;;;15.00;99.90;;;;;;5033057;28;20025;-72
2023/03/13 08:45:58;;;;;;;5.70;2.60;;;15.20;99.90;;;;;;5036747;28;20040;-71
2023/03/13 08:48:24;;;;;;;7.90;3.03;;;15.40;99.90;;;;;;5036158;28;20022;-71
2023/03/13 08:51:04;;;;;;;8.73;2.92;;;15.50;99.90;;;;;;5036505;28;20037;-72
2023/03/13 08:53:30;;;;;;;7.87;2.53;;;15.60;99.90;;;;;;5039064;28;20075;-70
2023/03/13 08:55:56;;;;;;;6.55;2.88;;;15.70;99.90;;;;;;5038829;28;20028;-73
2023/03/13 08:58:22;;;;;;;7.55;3.00;;;15.80;99.90;;;;;;5036592;28;20029;-73
2023/03/13 09:00:47;;;;;;;8.23;2.92;;;15.90;99.90;;;;;;5043268;28;20028;-73
2023/03/13 09:03:13;;;;;;;5.93;2.40;;;15.90;99.90;;;;;;5039126;28;20029;-72
2023/03/13 09:05:39;;;;;;;4.28;2.15;;;16.00;99.90;;;;;;5042092;28;20507;-72
2023/03/13 09:08:04;;;;;;;6.15;2.70;;;15.90;99.90;;;;;;5039836;28;20029;-72
2023/03/13 09:10:34;;;;;;;7.22;2.67;;;15.90;99.90;;;;;;5038167;28;20053;-71
2023/03/13 09:13:00;;;;;;;5.68;2.50;;;15.90;99.90;;;;;;5039699;28;20052;-72
2023/03/13 09:15:26;;;;;;;7.85;2.55;;;15.90;99.90;;;;;;5035427;28;20022;-72
2023/03/13 09:17:51;;;;;;;3.47;2.10;;;15.90;99.90;;;;;;5035997;28;20037;-72
2023/03/13 09:20:19;;;;;;;5.18;2.58;;;16.00;99.90;;;;;;5042009;28;20035;-71
2023/03/13 09:22:46;;;;;;;4.35;2.53;;;16.10;99.90;;;;;;5036390;28;20025;-72
2023/03/13 09:25:12;;;;;;;7.43;2.40;;;16.20;99.90;;;;;;5036813;28;20412;-72
2023/03/13 09:27:38;;;;;;;8.85;3.17;;;16.30;99.90;;;;;;5036753;28;20079;-72
2023/03/13 09:30:05;;;;;;;8.75;2.60;;;16.50;99.90;;;;;;5040656;28;20040;-71
2023/03/13 09:32:32;;;;;;;9.15;2.58;;;16.60;99.90;;;;;;5038854;28;20033;-72
2023/03/13 09:34:58;;;;;;;6.65;2.22;;;16.60;99.90;;;;;;5038009;28;20052;-72
2023/03/13 09:37:24;;;;;;;8.57;2.60;;;16.70;99.90;;;;;;5035979;28;20017;-72
2023/03/13 09:39:50;;;;;;;8.85;3.53;;;16.70;99.90;;;;;;5038973;28;20156;-71
2023/03/13 09:42:23;;;;;;;4.07;2.58;;;16.80;99.90;;;;;;5035918;28;20071;-71
2023/03/13 09:45:02;;;;;;;6.68;2.63;;;16.90;99.90;;;;;;5037150;28;20461;-72
2023/03/13 09:47:40;;;;;;;5.13;2.47;;;16.90;99.90;;;;;;5032518;28;20039;-72
2023/03/13 09:50:22;;;;;;;9.07;3.47;;;17.00;99.90;;;;;;5038566;28;20017;-72
2023/03/13 09:52:54;;;;;;;6.65;2.65;;;17.00;99.90;;;;;;5035903;28;20075;-72
2023/03/13 09:55:25;;;;;;;7.63;2.88;;;17.10;99.90;;;;;;5040161;28;20029;-73
2023/03/13 09:57:58;;;;;;;5.93;2.97;;;17.10;99.90;;;;;;5039841;28;20120;-72
2023/03/13 10:00:35;;;;;;;19.00;3.35;;;17.20;99.90;;;;;;5039750;28;20093;-72
2023/03/13 10:03:10;;;;;;;8.65;3.55;;;17.30;99.90;;;;;;5034605;28;20129;-72
2023/03/13 10:05:38;;;;;;;6.07;2.85;;;17.40;99.90;;;;;;5041944;28;20405;-73
2023/03/13 10:08:15;;;;;;;8.20;3.70;;;17.50;99.90;;;;;;5037544;28;20041;-70
2023/03/13 10:10:54;;;;;;;10.68;3.20;;;17.60;99.90;;;;;;5032517;28;20033;-69
2023/03/13 10:13:30;;;;;;;11.48;3.95;;;17.70;99.90;;;;;;5030713;28;20030;-70
2023/03/13 10:16:31;;;;;;;9.90;3.20;;;17.70;99.90;;;;;;5037354;28;20083;-70
2023/03/13 10:18:58;;;;;;;6.45;3.13;;;17.70;99.90;;;;;;5034150;28;20049;-70
2023/03/13 10:21:31;;;;;;;9.55;3.33;;;17.70;99.90;;;;;;5033153;28;20393;-70
2023/03/13 10:24:21;;;;;;;11.13;4.75;;;17.70;99.90;;;;;;5039960;28;20053;-70
2023/03/13 10:26:47;;;;;;;10.23;3.55;;;17.70;99.90;;;;;;5038466;28;20094;-70
2023/03/13 10:29:21;;;;;;;10.77;2.90;;;17.70;99.90;;;;;;5033471;28;20033;-70
2023/03/13 10:31:56;;;;;;;12.45;3.38;;;17.60;99.90;;;;;;5033459;28;20033;-70
2023/03/13 10:34:24;;;;;;;8.73;3.47;;;17.80;99.90;;;;;;5038194;28;20053;-69
2023/03/13 10:36:56;;;;;;;9.40;3.35;;;17.90;99.90;;;;;;5039330;28;20440;-71
2023/03/13 10:39:24;;;;;;;9.25;2.85;;;17.90;99.90;;;;;;5041894;28;20022;-70
2023/03/13 10:41:56;;;;;;;16.83;2.88;;;18.00;99.90;;;;;;5039332;28;20075;-71
2023/03/13 10:44:29;;;;;;;27.02;3.92;;;17.90;99.90;;;;;;5036594;28;20033;-70
2023/03/13 10:47:00;;;;;;;12.35;4.57;;;17.90;99.90;;;;;;5031680;28;20051;-70
2023/03/13 10:49:25;;;;;;;16.95;3.85;;;17.90;99.90;;;;;;5036368;28;20120;-71
2023/03/13 10:51:57;;;;;;;6.53;3.53;;;17.90;99.90;;;;;;5041545;28;20053;-70
2023/03/13 10:54:30;;;;;;;8.32;3.38;;;17.90;99.90;;;;;;5036489;28;20045;-70
2023/03/13 10:57:17;;;;;;;6.78;2.88;;;17.90;99.90;;;;;;5035082;28;20029;-70
2023/03/13 10:59:49;;;;;;;7.07;3.15;;;18.00;99.90;;;;;;5040116;28;20532;-70
2023/03/13 11:02:31;;;;;;;7.75;3.05;;;18.00;99.90;;;;;;5032785;28;20105;-69
2023/03/13 11:04:58;;;;;;;14.68;3.78;;;18.00;99.90;;;;;;5037711;28;20025;-70
2023/03/13 11:07:37;;;;;;;8.40;3.05;;;18.10;99.90;;;;;;5035650;28;20029;-70
2023/03/13 11:10:20;;;;;;;7.05;3.20;;;18.10;99.90;;;;;;5039173;28;20075;-71
2023/03/13 11:12:50;;;;;;;7.22;2.95;;;18.10;99.90;;;;;;5041026;28;20036;-70
2023/03/13 11:15:31;;;;;;;4.22;2.70;;;18.20;99.90;;;;;;5035746;28;20025;-70
2023/03/13 11:18:23;;;;;;;7.25;3.35;;;18.30;99.90;;;;;;5035530;28;20021;-70
2023/03/13 11:20:49;;;;;;;4.03;2.38;;;18.40;99.90;;;;;;5030821;28;20120;-70
2023/03/13 11:23:37;;;;;;;8.27;3.17;;;18.50;99.90;;;;;;5038563;28;20045;-71
2023/03/13 11:26:32;;;;;;;6.43;2.67;;;18.50;99.90;;;;;;5033375;28;20044;-70
2023/03/13 11:29:04;;;;;;;6.57;2.72;;;18.60;99.90;;;;;;5036067;28;20031;-71
2023/03/13 11:31:41;;;;;;;9.50;2.60;;;18.60;99.90;;;;;;5035778;28;20037;-71
2023/03/13 11:34:15;;;;;;;9.10;2.67;;;18.70;99.90;;;;;;5033432;28;20029;-70
2023/03/13 11:36:41;;;;;;;9.02;2.95;;;18.60;99.90;;;;;;5039752;28;20520;-71
2023/03/13 11:39:43;;;;;;;6.03;2.83;;;18.60;99.90;;;;;;5037991;28;20021;-70
2023/03/13 11:42:38;;;;;;;7.75;3.20;;;18.80;99.90;;;;;;5035817;28;20052;-70
2023/03/13 11:45:29;;;;;;;11.93;3.25;;;18.80;99.90;;;;;;5034614;28;20081;-73
2023/03/13 11:48:20;;;;;;;7.00;2.80;;;18.80;99.90;;;;;;5037480;28;20110;-71
2023/03/13 11:51:11;;;;;;;5.10;2.30;;;18.90;99.90;;;;;;5037062;28;20057;-71
2023/03/13 11:53:44;;;;;;;;;;;19.00;99.90;;;;;;5038120;28;20155;-71
2023/03/13 11:56:12;;;;;;;7.22;2.78;;;19.10;99.90;;;;;;5035883;28;19967;-70
2023/03/13 11:58:44;;;;;;;6.57;2.85;;;19.10;99.90;;;;;;5035612;28;20021;-71
2023/03/13 12:01:15;;;;;;;7.15;3.58;;;19.10;99.90;;;;;;5035938;28;20045;-71
2023/03/13 12:03:52;;;;;;;10.60;2.92;;;19.20;99.90;;;;;;5037057;28;20045;-70
2023/03/13 12:06:29;;;;;;;7.93;2.90;;;19.30;99.90;;;;;;5034158;28;20033;-71
2023/03/13 12:09:05;;;;;;;8.10;2.95;;;19.30;99.90;;;;;;5034988;28;20032;-70
2023/03/13 12:11:42;;;;;;;7.97;3.58;;;19.40;99.90;;;;;;5036010;28;20026;-70
2023/03/13 12:14:53;;;;;;;4.80;2.83;;;19.50;99.90;;;;;;5039638;28;20050;-71
2023/03/13 12:17:42;;;;;;;8.93;2.92;;;19.50;99.90;;;;;;5002856;28;20092;-70
2023/03/13 12:20:20;;;;;;;9.65;3.33;;;19.60;99.90;;;;;;5039297;28;20079;-71
2023/03/13 12:22:57;;;;;;;8.13;2.92;;;19.60;99.90;;;;;;5037640;28;20172;-70
2023/03/13 12:25:27;;;;;;;6.82;2.80;;;19.80;99.90;;;;;;5032564;28;20049;-70
2023/03/13 12:28:02;;;;;;;10.88;2.90;;;19.80;99.90;;;;;;5042655;28;20025;-71
2023/03/13 12:30:42;;;;;;;11.57;2.70;;;19.80;99.90;;;;;;5039974;28;20080;-71
2023/03/13 12:33:20;;;;;;;5.10;2.40;;;19.90;99.90;;;;;;5038561;28;20470;-70
2023/03/13 12:36:14;;;;;;;5.32;2.40;;;19.90;99.90;;;;;;5039046;28;20072;-70
2023/03/13 12:38:52;;;;;;;7.43;3.13;;;19.80;99.90;;;;;;5033780;28;20055;-71
2023/03/13 12:41:40;;;;;;;9.50;3.60;;;19.90;99.90;;;;;;5039499;28;20083;-71
2023/03/13 12:44:10;;;;;;;13.30;3.10;;;19.90;99.90;;;;;;5041399;28;20493;-71
2023/03/13 12:47:06;;;;;;;8.82;3.67;;;19.70;99.90;;;;;;5042159;28;20040;-70
2023/03/13 12:49:45;;;;;;;7.38;3.33;;;19.70;99.90;;;;;;5034683;28;20529;-71
2023/03/13 12:52:14;;;;;;;9.68;3.15;;;19.80;99.90;;;;;;5037456;28;20576;-71